createdAt,value
2023-01-04T00:01:03.889Z,101811.44
2023-01-04T00:03:32.527Z,101800.59
2023-01-04T00:06:00.948Z,101803.75
2023-01-04T00:08:31.259Z,101801.09
2023-01-04T00:11:01.762Z,101785.63
2023-01-04T00:13:28.449Z,101783.28
2023-01-04T00:15:54.905Z,101771.59
2023-01-04T00:18:21.310Z,101776.06
2023-01-04T00:20:47.692Z,101761.03
2023-01-04T00:23:14.277Z,101771.03
2023-01-04T00:25:40.826Z,101769.56
2023-01-04T00:28:07.299Z,101768.50
2023-01-04T00:30:33.951Z,101756.25
2023-01-04T00:33:00.363Z,101768.28
2023-01-04T00:35:44.606Z,101755.91
2023-01-04T00:38:12.580Z,101743.22
2023-01-04T00:40:39.039Z,101742.50
2023-01-04T00:43:05.447Z,101723.75
2023-01-04T00:45:32.156Z,101702.44
2023-01-04T00:47:58.787Z,101707.50
2023-01-04T00:50:25.188Z,101705.09
2023-01-04T00:52:51.633Z,101701.22
2023-01-04T00:55:18.046Z,101697.59
2023-01-04T00:57:44.443Z,101692.25
2023-01-04T01:00:11.702Z,101688.84
2023-01-04T01:02:38.327Z,101676.50
2023-01-04T01:05:05.447Z,101672.66
2023-01-04T01:07:31.840Z,101668.94
2023-01-04T01:10:01.221Z,101667.00
2023-01-04T01:12:27.704Z,101645.56
2023-01-04T01:15:00.158Z,101654.53
2023-01-04T01:17:26.924Z,101639.50
2023-01-04T01:19:53.367Z,101631.28
2023-01-04T01:22:19.787Z,101641.09
2023-01-04T01:24:46.226Z,101615.66
2023-01-04T01:27:12.717Z,101630.34
2023-01-04T01:29:39.133Z,101623.91
2023-01-04T01:32:05.621Z,101606.84
2023-01-04T01:34:34.454Z,101606.94
2023-01-04T01:37:02.678Z,101601.63
2023-01-04T01:39:29.476Z,101600.91
2023-01-04T01:41:55.976Z,101589.03
2023-01-04T01:44:45.040Z,101580.94
2023-01-04T01:47:21.543Z,101585.91
2023-01-04T01:49:51.515Z,101572.81
2023-01-04T01:52:22.807Z,101579.00
2023-01-04T01:55:00.056Z,101547.38
2023-01-04T01:57:32.198Z,101560.59
2023-01-04T02:00:02.610Z,101549.13
2023-01-04T02:02:29.457Z,101524.75
2023-01-04T02:04:56.664Z,101538.19
2023-01-04T02:07:26.640Z,101528.50
2023-01-04T02:09:54.790Z,101521.03
2023-01-04T02:12:21.290Z,101518.59
2023-01-04T02:14:50.263Z,101505.25
2023-01-04T02:17:16.620Z,101486.00
2023-01-04T02:19:52.042Z,101488.06
2023-01-04T02:22:37.317Z,101492.09
2023-01-04T02:25:09.577Z,101489.03
2023-01-04T02:27:57.523Z,101494.97
2023-01-04T02:30:51.652Z,101470.63
2023-01-04T02:33:43.599Z,101469.78
2023-01-04T02:36:28.759Z,101459.84
2023-01-04T02:39:04.316Z,101437.69
2023-01-04T02:41:47.245Z,101439.63
2023-01-04T02:44:38.231Z,101434.63
2023-01-04T02:47:09.738Z,101431.47
2023-01-04T02:49:57.846Z,101413.78
2023-01-04T02:52:32.033Z,101397.28
2023-01-04T02:55:07.013Z,101394.16
2023-01-04T02:57:33.387Z,101380.56
2023-01-04T03:00:09.052Z,101384.94
2023-01-04T03:03:09.242Z,101379.59
2023-01-04T03:06:13.089Z,101370.75
2023-01-04T03:08:43.305Z,101342.28
2023-01-04T03:11:30.989Z,101339.38
2023-01-04T03:14:32.188Z,101338.94
2023-01-04T03:16:54.480Z,101331.06
2023-01-04T03:19:42.946Z,101321.25
2023-01-04T03:22:33.255Z,101315.22
2023-01-04T03:25:24.315Z,101299.34
2023-01-04T03:28:11.697Z,101282.88
2023-01-04T03:31:06.380Z,101275.38
2023-01-04T03:33:52.064Z,101280.84
2023-01-04T03:36:31.929Z,101264.03
2023-01-04T03:39:47.852Z,101250.56
2023-01-04T03:42:41.367Z,101241.03
2023-01-04T03:45:35.108Z,101251.47
2023-01-04T03:48:33.306Z,101235.13
2023-01-04T03:51:06.056Z,101220.50
2023-01-04T03:53:38.034Z,101219.69
2023-01-04T03:56:06.382Z,101207.34
2023-01-04T03:58:33.098Z,101222.47
2023-01-04T04:01:03.805Z,101199.50
2023-01-04T04:03:50.564Z,101192.34
2023-01-04T04:06:36.068Z,101169.84
2023-01-04T04:09:03.212Z,101190.28
2023-01-04T04:11:32.675Z,101169.88
2023-01-04T04:14:00.403Z,101173.50
2023-01-04T04:16:27.688Z,101149.56
2023-01-04T04:18:54.743Z,101145.31
2023-01-04T04:21:21.279Z,101145.56
2023-01-04T04:23:47.717Z,101147.97
2023-01-04T04:26:14.665Z,101138.31
2023-01-04T04:28:41.865Z,101139.38
2023-01-04T04:31:08.757Z,101139.50
2023-01-04T04:33:35.421Z,101127.91
2023-01-04T04:36:01.880Z,101109.28
2023-01-04T04:38:28.515Z,101094.41
2023-01-04T04:41:13.541Z,101098.53
2023-01-04T04:43:40.005Z,101087.28
2023-01-04T04:46:06.758Z,101089.47
2023-01-04T04:48:33.380Z,101066.50
2023-01-04T04:50:59.817Z,101076.75
2023-01-04T04:53:26.483Z,101061.31
2023-01-04T04:55:54.169Z,101068.56
2023-01-04T04:58:21.298Z,101054.16
2023-01-04T05:00:47.740Z,101046.78
2023-01-04T05:03:14.286Z,101031.81
2023-01-04T05:05:40.711Z,101048.13
2023-01-04T05:08:07.219Z,101031.31
2023-01-04T05:10:33.727Z,101025.66
2023-01-04T05:13:00.215Z,101029.16
2023-01-04T05:15:38.720Z,100995.53
2023-01-04T05:18:06.585Z,101019.00
2023-01-04T05:20:33.042Z,101018.38
2023-01-04T05:22:59.755Z,101002.03
2023-01-04T05:25:26.820Z,101005.31
2023-01-04T05:27:53.278Z,100973.06
2023-01-04T05:30:38.665Z,100952.09
2023-01-04T05:33:05.795Z,100969.75
2023-01-04T05:35:32.354Z,100937.72
2023-01-04T05:37:59.183Z,100950.63
2023-01-04T05:40:26.370Z,100941.88
2023-01-04T05:42:52.899Z,100938.91
2023-01-04T05:45:20.985Z,100917.03
2023-01-04T05:47:52.409Z,100950.00
2023-01-04T05:50:21.070Z,100940.41
2023-01-04T05:52:48.340Z,100934.50
2023-01-04T05:55:14.790Z,100930.63
2023-01-04T05:57:41.589Z,100926.56
2023-01-04T06:00:09.764Z,100910.19
2023-01-04T06:02:36.432Z,100906.72
2023-01-04T06:05:03.155Z,100907.31
2023-01-04T06:07:30.068Z,100899.78
2023-01-04T06:09:56.594Z,100890.25
2023-01-04T06:12:23.019Z,100889.97
2023-01-04T06:14:49.466Z,100890.78
2023-01-04T06:17:15.997Z,100891.47
2023-01-04T06:19:42.573Z,100885.31
2023-01-04T06:22:09.327Z,100861.47
2023-01-04T06:24:35.873Z,100889.25
2023-01-04T06:27:03.179Z,100880.75
2023-01-04T06:29:29.559Z,100869.84
2023-01-04T06:31:56.013Z,100855.09
2023-01-04T06:34:26.979Z,100850.25
2023-01-04T06:36:57.374Z,100835.25
2023-01-04T06:39:23.915Z,100852.09
2023-01-04T06:41:50.417Z,100833.47
2023-01-04T06:44:16.938Z,100829.56
2023-01-04T06:46:43.705Z,100838.28
2023-01-04T06:49:10.213Z,100836.19
2023-01-04T06:51:36.784Z,100819.50
2023-01-04T06:54:03.319Z,100824.03
2023-01-04T06:56:30.989Z,100815.59
2023-01-04T06:58:57.770Z,100798.91
2023-01-04T07:01:24.279Z,100793.16
2023-01-04T07:03:50.834Z,100786.84
2023-01-04T07:06:17.271Z,100780.41
2023-01-04T07:08:43.754Z,100796.13
2023-01-04T07:11:10.196Z,100781.97
2023-01-04T07:13:36.675Z,100777.47
2023-01-04T07:16:03.206Z,100757.97
2023-01-04T07:18:29.668Z,100774.25
2023-01-04T07:20:56.235Z,100761.78
2023-01-04T07:23:22.658Z,100757.69
2023-01-04T07:25:49.131Z,100764.44
2023-01-04T07:28:38.410Z,100767.94
2023-01-04T07:31:06.819Z,100760.94
2023-01-04T07:33:33.540Z,100751.13
2023-01-04T07:36:06.868Z,100752.25
2023-01-04T07:38:36.295Z,100743.81
2023-01-04T07:41:02.763Z,100747.88
2023-01-04T07:43:29.209Z,100731.59
2023-01-04T07:45:55.818Z,100738.63
2023-01-04T07:48:22.346Z,100730.19
2023-01-04T07:50:50.224Z,100730.47
2023-01-04T07:53:16.704Z,100727.06
2023-01-04T07:55:43.103Z,100707.84
2023-01-04T07:58:09.576Z,100733.22
2023-01-04T08:00:36.122Z,100716.38
2023-01-04T08:03:02.687Z,100728.03
2023-01-04T08:05:32.580Z,100737.88
2023-01-04T08:07:59.574Z,100729.81
2023-01-04T08:10:26.231Z,100723.97
2023-01-04T08:12:52.784Z,100730.09
2023-01-04T08:15:19.573Z,100717.75
2023-01-04T08:17:46.013Z,100722.50
2023-01-04T08:20:12.572Z,100709.69
2023-01-04T08:22:39.013Z,100701.66
2023-01-04T08:25:06.933Z,100699.28
2023-01-04T08:27:33.758Z,100701.94
2023-01-04T08:30:00.282Z,100704.56
2023-01-04T08:32:26.765Z,100712.97
2023-01-04T08:34:54.185Z,100711.69
2023-01-04T08:37:21.244Z,100692.88
2023-01-04T08:39:49.770Z,100700.47
2023-01-04T08:42:24.719Z,100707.56
2023-01-04T08:44:59.106Z,100707.72
2023-01-04T08:47:26.382Z,100709.41
2023-01-04T08:49:52.779Z,100701.09
2023-01-04T08:52:19.293Z,100714.00
2023-01-04T08:54:45.727Z,100705.94
2023-01-04T08:57:12.300Z,100692.72
2023-01-04T08:59:39.142Z,100689.63
2023-01-04T09:02:18.870Z,100694.38
2023-01-04T09:04:45.679Z,100684.03
2023-01-04T09:07:12.104Z,100694.44
2023-01-04T09:09:38.523Z,100677.72
2023-01-04T09:12:05.257Z,100669.78
2023-01-04T09:14:31.785Z,100672.81
2023-01-04T09:16:58.271Z,100662.13
2023-01-04T09:19:24.910Z,100678.72
2023-01-04T09:21:51.491Z,100681.25
2023-01-04T09:24:17.922Z,100676.28
2023-01-04T09:26:44.360Z,100666.88
2023-01-04T09:29:11.264Z,100672.72
2023-01-04T09:31:37.865Z,100658.97
2023-01-04T09:34:19.899Z,100681.13
2023-01-04T09:36:47.743Z,100667.06
2023-01-04T09:39:21.570Z,100660.28
2023-01-04T09:41:54.652Z,100667.81
2023-01-04T09:48:04.864Z,100643.13
2023-01-04T09:50:36.641Z,100647.50
2023-01-04T09:53:18.562Z,100638.13
2023-01-04T09:55:49.545Z,100641.50
2023-01-04T09:58:28.058Z,100632.47
2023-01-04T10:01:11.129Z,100627.97
2023-01-04T10:03:39.776Z,100633.56
2023-01-04T10:06:10.652Z,100644.25
2023-01-04T10:08:37.487Z,100626.28
2023-01-04T10:11:33.212Z,100629.56
2023-01-04T10:13:59.560Z,100627.50
2023-01-04T10:17:11.009Z,100631.03
2023-01-04T10:22:23.379Z,100601.97
2023-01-04T10:25:08.756Z,100640.44
2023-01-04T10:28:34.438Z,100604.31
2023-01-04T10:31:40.433Z,100611.34
2023-01-04T10:34:23.150Z,100613.03
2023-01-04T10:36:53.843Z,100598.81
2023-01-04T10:39:28.553Z,100604.31
2023-01-04T10:42:00.187Z,100612.09
2023-01-04T10:44:26.605Z,100603.22
2023-01-04T10:47:15.382Z,100606.59
2023-01-04T10:49:46.926Z,100598.22
2023-01-04T10:52:30.545Z,100593.41
2023-01-04T10:55:04.562Z,100591.88
2023-01-04T10:57:42.587Z,100583.22
2023-01-04T11:00:30.333Z,100583.22
2023-01-04T11:03:09.096Z,100573.34
2023-01-04T11:05:54.866Z,100556.31
2023-01-04T11:08:26.829Z,100563.50
2023-01-04T11:10:57.800Z,100578.72
2023-01-04T11:13:24.811Z,100560.13
2023-01-04T11:15:52.488Z,100572.50
2023-01-04T11:18:19.238Z,100566.34
2023-01-04T11:20:45.649Z,100573.91
2023-01-04T11:23:16.707Z,100562.03
2023-01-04T11:25:55.555Z,100554.69
2023-01-04T11:28:34.769Z,100567.56
2023-01-04T11:31:17.379Z,100561.56
2023-01-04T11:34:03.451Z,100558.75
2023-01-04T11:36:39.520Z,100537.47
2023-01-04T11:39:27.858Z,100552.03
2023-01-04T11:42:04.327Z,100551.56
2023-01-04T11:44:35.333Z,100545.19
2023-01-04T11:47:23.377Z,100550.56
2023-01-04T11:49:52.441Z,100545.72
2023-01-04T11:52:36.994Z,100532.31
2023-01-04T11:55:22.124Z,100533.81
2023-01-04T11:57:48.726Z,100532.16
2023-01-04T12:00:16.577Z,100518.94
2023-01-04T12:03:00.614Z,100538.69
2023-01-04T12:05:30.547Z,100520.09
2023-01-04T12:07:58.654Z,100527.97
2023-01-04T12:10:27.498Z,100518.94
2023-01-04T12:12:56.302Z,100526.13
2023-01-04T12:15:51.861Z,100520.13
2023-01-04T12:18:28.063Z,100514.47
2023-01-04T12:20:56.680Z,100525.16
2023-01-04T12:23:23.422Z,100515.09
2023-01-04T12:25:52.801Z,100513.63
2023-01-04T12:28:33.896Z,100522.97
2023-01-04T12:31:20.840Z,100508.41
2023-01-04T12:34:11.944Z,100515.47
2023-01-04T12:36:38.231Z,100512.44
2023-01-04T12:39:13.985Z,100513.09
2023-01-04T12:41:40.510Z,100512.25
2023-01-04T12:44:38.727Z,100506.75
2023-01-04T12:47:23.760Z,100510.25
2023-01-04T12:49:58.940Z,100490.00
2023-01-04T12:52:42.903Z,100508.09
2023-01-04T12:55:27.666Z,100513.44
2023-01-04T12:57:54.186Z,100517.28
2023-01-04T13:00:20.782Z,100500.06
2023-01-04T13:03:08.971Z,100503.25
2023-01-04T13:08:23.699Z,100511.47
2023-01-04T13:10:53.693Z,100502.94
2023-01-04T13:13:43.667Z,100505.78
2023-01-04T13:16:22.577Z,100509.16
2023-01-04T13:19:01.940Z,100491.06
2023-01-04T13:21:31.367Z,100499.59
2023-01-04T13:24:01.643Z,100494.91
2023-01-04T13:26:34.924Z,100485.03
2023-01-04T13:29:10.369Z,100486.53
2023-01-04T13:31:56.561Z,100469.81
2023-01-04T13:34:30.896Z,100478.50
2023-01-04T13:37:17.087Z,100480.03
2023-01-04T13:39:48.995Z,100479.34
2023-01-04T13:42:24.051Z,100469.63
2023-01-04T13:45:19.205Z,100462.94
2023-01-04T13:47:49.277Z,100458.25
2023-01-04T13:50:30.932Z,100456.38
2023-01-04T13:53:06.890Z,100430.97
2023-01-04T13:55:37.153Z,100461.94
2023-01-04T13:58:06.789Z,100461.09
2023-01-04T14:00:43.037Z,100462.59
2023-01-04T14:03:35.828Z,100452.69
2023-01-04T14:06:16.441Z,100447.34
2023-01-04T14:09:01.234Z,100449.19
2023-01-04T14:12:07.835Z,100433.09
2023-01-04T14:14:45.019Z,100429.59
2023-01-04T14:17:17.415Z,100428.75
2023-01-04T14:19:58.957Z,100422.09
2023-01-04T14:22:38.301Z,100414.19
2023-01-04T14:25:29.543Z,100407.81
2023-01-04T14:28:17.670Z,100408.81
2023-01-04T14:30:51.780Z,100411.38
2023-01-04T14:33:23.114Z,100421.25
2023-01-04T14:36:04.215Z,100423.22
2023-01-04T14:38:35.133Z,100409.19
2023-01-04T14:41:41.508Z,100415.34
2023-01-04T14:44:22.688Z,100413.88
2023-01-04T14:46:52.030Z,100410.69
2023-01-04T14:49:19.851Z,100414.72
2023-01-04T14:51:57.209Z,100402.81
2023-01-04T14:54:25.945Z,100411.88
2023-01-04T14:56:56.902Z,100408.69
2023-01-04T14:59:24.510Z,100408.34
2023-01-04T15:01:52.281Z,100407.00
2023-01-04T15:04:19.016Z,100394.94
2023-01-04T15:06:52.255Z,100405.84
2023-01-04T15:09:18.801Z,100396.28
2023-01-04T15:11:45.349Z,100389.25
2023-01-04T15:14:11.974Z,100392.94
2023-01-04T15:16:38.849Z,100387.91
2023-01-04T15:19:05.508Z,100396.94
2023-01-04T15:21:36.863Z,100390.75
2023-01-04T15:24:07.539Z,100394.44
2023-01-04T15:26:34.025Z,100387.41
2023-01-04T15:29:00.470Z,100386.72
2023-01-04T15:31:32.451Z,100381.69
2023-01-04T15:34:01.672Z,100381.38
2023-01-04T15:36:28.139Z,100381.53
2023-01-04T15:38:55.375Z,100391.25
2023-01-04T15:41:40.338Z,100393.94
2023-01-04T15:44:09.943Z,100386.72
2023-01-04T15:46:36.524Z,100393.09
2023-01-04T15:49:02.965Z,100383.22
2023-01-04T15:51:29.398Z,100392.59
2023-01-04T15:53:56.587Z,100386.41
2023-01-04T15:56:23.272Z,100371.66
2023-01-04T15:58:54.768Z,100374.50
2023-01-04T16:01:22.460Z,100369.84
2023-01-04T16:03:53.518Z,100361.63
2023-01-04T16:06:21.035Z,100360.78
2023-01-04T16:08:50.372Z,100353.59
2023-01-04T16:11:21.996Z,100355.94
2023-01-04T16:13:49.956Z,100351.06
2023-01-04T16:16:17.636Z,100360.78
2023-01-04T16:18:46.449Z,100365.81
2023-01-04T16:21:14.515Z,100371.00
2023-01-04T16:23:40.980Z,100371.50
2023-01-04T16:26:10.125Z,100377.53
2023-01-04T16:28:37.054Z,100375.84
2023-01-04T16:31:04.651Z,100371.34
2023-01-04T16:33:31.339Z,100378.03
2023-01-04T16:36:04.206Z,100372.66
2023-01-04T16:38:30.808Z,100378.34
2023-01-04T16:41:01.957Z,100382.88
2023-01-04T16:43:29.749Z,100380.69
2023-01-04T16:46:11.018Z,100383.38
2023-01-04T16:48:37.551Z,100389.22
2023-01-04T16:51:03.984Z,100383.03
2023-01-04T16:53:30.398Z,100374.84
2023-01-04T16:55:56.901Z,100383.72
2023-01-04T16:58:23.384Z,100375.84
2023-01-04T17:00:49.857Z,100385.06
2023-01-04T17:03:16.287Z,100399.59
2023-01-04T17:05:42.796Z,100389.59
2023-01-04T17:08:09.272Z,100396.63
2023-01-04T17:10:37.113Z,100396.44
2023-01-04T17:13:03.522Z,100396.78
2023-01-04T17:15:45.320Z,100394.28
2023-01-04T17:18:14.523Z,100384.72
2023-01-04T17:20:40.951Z,100394.91
2023-01-04T17:23:07.657Z,100392.25
2023-01-04T17:25:34.089Z,100385.22
2023-01-04T17:28:00.547Z,100402.28
2023-01-04T17:30:27.031Z,100387.41
2023-01-04T17:32:53.458Z,100380.19
2023-01-04T17:35:19.845Z,100385.06
2023-01-04T17:37:46.279Z,100365.81
2023-01-04T17:40:16.280Z,100372.66
2023-01-04T17:42:45.520Z,100382.38
2023-01-04T17:45:12.503Z,100373.19
2023-01-04T17:47:38.916Z,100383.38
2023-01-04T17:50:05.861Z,100378.53
2023-01-04T17:52:32.291Z,100382.03
2023-01-04T17:54:59.580Z,100382.03
2023-01-04T17:57:26.456Z,100378.03
2023-01-04T17:59:52.881Z,100392.91
2023-01-04T18:02:19.352Z,100379.19
2023-01-04T18:04:45.916Z,100376.19
2023-01-04T18:09:38.827Z,100385.06
2023-01-04T18:12:05.486Z,100385.06
2023-01-04T18:14:31.898Z,100381.03
2023-01-04T18:16:59.120Z,100373.31
2023-01-04T18:19:30.139Z,100379.84
2023-01-04T18:21:57.567Z,100368.97
2023-01-04T18:24:39.879Z,100378.00
2023-01-04T18:27:25.640Z,100379.00
2023-01-04T18:29:54.246Z,100367.47
2023-01-04T18:32:22.845Z,100368.13
2023-01-04T18:34:49.283Z,100363.78
2023-01-04T18:37:16.666Z,100360.09
2023-01-04T18:39:43.392Z,100361.94
2023-01-04T18:42:09.837Z,100372.50
2023-01-04T18:44:37.852Z,100364.63
2023-01-04T18:47:07.503Z,100364.31
2023-01-04T18:49:33.970Z,100355.28
2023-01-04T18:52:00.403Z,100362.13
2023-01-04T18:54:26.955Z,100344.41
2023-01-04T18:56:58.928Z,100339.22
2023-01-04T18:59:27.592Z,100340.03
2023-01-04T19:01:54.285Z,100346.06
2023-01-04T19:04:20.902Z,100351.44
2023-01-04T19:06:47.294Z,100362.47
2023-01-04T19:09:16.437Z,100357.28
2023-01-04T19:11:44.288Z,100356.28
2023-01-04T19:14:10.860Z,100346.22
2023-01-04T19:16:37.305Z,100352.56
2023-01-04T19:19:03.856Z,100362.13
2023-01-04T19:21:30.310Z,100358.94
2023-01-04T19:23:56.803Z,100342.72
2023-01-04T19:26:24.156Z,100352.91
2023-01-04T19:28:51.557Z,100341.34
2023-01-04T19:31:20.333Z,100356.91
2023-01-04T19:33:47.754Z,100355.56
2023-01-04T19:36:16.754Z,100337.84
2023-01-04T19:38:43.907Z,100345.34
2023-01-04T19:41:21.026Z,100337.34
2023-01-04T19:43:47.893Z,100329.63
2023-01-04T19:46:14.923Z,100338.00
2023-01-04T19:48:41.938Z,100333.16
2023-01-04T19:51:09.741Z,100328.63
2023-01-04T19:53:36.967Z,100326.28
2023-01-04T19:56:03.629Z,100327.78
2023-01-04T19:58:30.196Z,100329.31
2023-01-04T20:00:56.693Z,100330.81
2023-01-04T20:03:26.020Z,100337.66
2023-01-04T20:05:53.165Z,100328.31
2023-01-04T20:08:20.291Z,100318.44
2023-01-04T20:10:53.424Z,100328.13
2023-01-04T20:13:19.900Z,100336.66
2023-01-04T20:15:46.432Z,100326.63
2023-01-04T20:18:14.272Z,100355.91
2023-01-04T20:20:42.666Z,100343.69
2023-01-04T20:23:09.752Z,100355.38
2023-01-04T20:25:45.104Z,100349.84
2023-01-04T20:28:11.985Z,100346.63
2023-01-04T20:30:39.089Z,100349.31
2023-01-04T20:33:06.215Z,100348.00
2023-01-04T20:35:32.980Z,100326.41
2023-01-04T20:37:59.429Z,100345.59
2023-01-04T20:40:27.200Z,100342.75
2023-01-04T20:43:12.776Z,100340.56
2023-01-04T20:45:47.306Z,100350.09
2023-01-04T20:48:14.935Z,100350.56
2023-01-04T20:50:42.210Z,100337.16
2023-01-04T20:53:09.262Z,100357.22
2023-01-04T20:55:40.713Z,100357.38
2023-01-04T20:58:11.071Z,100365.03
2023-01-04T21:00:38.693Z,100359.53
2023-01-04T21:03:07.445Z,100354.03
2023-01-04T21:05:43.010Z,100347.84
2023-01-04T21:08:10.735Z,100343.44
2023-01-04T21:10:41.127Z,100354.88
2023-01-04T21:13:08.422Z,100359.69
2023-01-04T21:15:36.620Z,100357.84
2023-01-04T21:18:05.354Z,100361.34
2023-01-04T21:20:32.628Z,100347.84
2023-01-04T21:22:59.104Z,100369.22
2023-01-04T21:25:25.557Z,100366.38
2023-01-04T21:27:52.005Z,100379.59
2023-01-04T21:30:18.434Z,100364.56
2023-01-04T21:32:44.908Z,100381.59
2023-01-04T21:35:11.396Z,100350.91
2023-01-04T21:37:37.803Z,100368.06
2023-01-04T21:40:04.703Z,100361.03
2023-01-04T21:42:31.098Z,100363.72
2023-01-04T21:44:57.832Z,100372.56
2023-01-04T21:47:24.229Z,100368.06
2023-01-04T21:49:50.792Z,100361.00
2023-01-04T21:52:17.247Z,100368.44
2023-01-04T21:54:43.783Z,100365.09
2023-01-04T21:57:10.197Z,100364.56
2023-01-04T21:59:36.678Z,100381.94
2023-01-04T22:02:03.409Z,100366.75
2023-01-04T22:04:30.158Z,100375.63
2023-01-04T22:06:56.704Z,100362.88
2023-01-04T22:09:23.190Z,100384.16
2023-01-04T22:11:50.213Z,100380.81
2023-01-04T22:14:17.804Z,100382.31
2023-01-04T22:16:44.315Z,100399.03
2023-01-04T22:19:12.812Z,100367.81
2023-01-04T22:21:39.678Z,100387.00
2023-01-04T22:24:06.592Z,100381.38
2023-01-04T22:26:34.195Z,100394.91
2023-01-04T22:29:00.694Z,100400.75
2023-01-04T22:31:27.231Z,100393.72
2023-01-04T22:33:53.732Z,100389.72
2023-01-04T22:36:23.378Z,100391.72
2023-01-04T22:38:54.910Z,100388.25
2023-01-04T22:41:24.209Z,100404.31
2023-01-04T22:44:03.321Z,100376.25
2023-01-04T22:46:31.272Z,100400.97
2023-01-04T22:48:59.538Z,100424.03
2023-01-04T22:51:28.675Z,100403.63
2023-01-04T22:53:57.495Z,100406.66
2023-01-04T22:56:24.721Z,100403.31
2023-01-04T22:58:54.563Z,100405.00
2023-01-04T23:01:24.388Z,100415.38
2023-01-04T23:03:51.825Z,100423.75
2023-01-04T23:06:18.791Z,100418.06
2023-01-04T23:08:45.228Z,100428.75
2023-01-04T23:11:15.996Z,100418.59
2023-01-04T23:13:42.647Z,100428.13
2023-01-04T23:16:14.623Z,100393.00
2023-01-04T23:18:41.113Z,100424.28
2023-01-04T23:21:09.067Z,100424.28
2023-01-04T23:23:36.105Z,100424.44
2023-01-04T23:26:14.442Z,100442.19
2023-01-04T23:28:41.729Z,100429.78
2023-01-04T23:31:10.711Z,100433.63
2023-01-04T23:33:37.638Z,100444.97
2023-01-04T23:36:06.796Z,100441.91
2023-01-04T23:38:33.207Z,100440.06
2023-01-04T23:40:59.631Z,100437.03
2023-01-04T23:43:26.026Z,100439.16
2023-01-04T23:45:52.464Z,100434.63
2023-01-04T23:48:18.974Z,100435.94
2023-01-04T23:50:54.352Z,100356.06
2023-01-04T23:53:20.758Z,100441.59
2023-01-04T23:55:58.628Z,100443.75
2023-01-04T23:58:27.372Z,100446.03
